AirNav   Pilot Hours Calculator
 
 952 users online  

85WI Cub Bear Airport
Emerald, Wisconsin, USA

GOING TO EMERALD?


FAA INFORMATION EFFECTIVE 26 JANUARY 2023

Location

FAA Identifier: 85WI
Lat/Long: 45-02-39.9600N 092-17-33.9800W
45-02.666000N 092-17.566333W
45.0444333,-92.2927722
(estimated)
Elevation: 1240 ft. / 378 m (estimated)
From city: 3 miles SW of EMERALD, WI
Time zone: UTC -6 (UTC -5 during Daylight Saving Time)
Zip code: 54013

Airport Operations

Airport use: Private use. Permission required prior to landing
Activation date: 05/2004
Control tower: no
ARTCC: MINNEAPOLIS CENTER
FSS: GREEN BAY FLIGHT SERVICE STATION
Attendance: UNATNDD
Wind indicator: yes
Segmented circle: no

Airport Communications

WX AWOS-3 at RNH (12 nm NW): 120.0 (715-246-3202)

Nearby radio navigation aids

VOR radial/distance  VOR name  Freq  Var
EAUr280/35.7EAU CLAIRE VORTAC113.6504E

Airport Services

Airframe service: NONE
Powerplant service: NONE
Bottled oxygen: NONE
Bulk oxygen: NONE

Runway Information

Runway 9/27

Dimensions: 2640 x 100 ft. / 805 x 30 m
Surface: turf
RUNWAY 9  RUNWAY 27
Traffic pattern: leftleft
Displaced threshold: 300 ft.
RY 09 DSPLCD THLDS MKD WITH CONES.
no
Obstructions: 15 ft. road, 60 ft. from runwaynone

Airport Ownership and Management from official FAA records

Ownership: Privately-owned
Owner: KEVIN J. GRANT
1273 250TH ST
GLENWOOD CITY, WI 54013
Phone 715-781-2223
Manager: KEVIN J. GRANT
1273 250TH ST
GLENWOOD CITY, WI 54013
Phone 715-781-2223

Airport Operational Statistics

Aircraft based on the field: 2
Single engine airplanes: 2
    
Aircraft operations: 80/year *
62% local general aviation
38% transient general aviation
* for 12-month period ending 22 July 2020

Additional Remarks

FOR CD CTC MINNEAPOLIS ARTCC AT 651-463-5588.

Instrument Procedures

There are no published instrument procedures at 85WI.

Some nearby airports with instrument procedures:

3T3 - Boyceville Municipal Airport (12 nm E)
KRNH - New Richmond Regional Airport (12 nm NW)
KAHH - Amery Municipal Airport (15 nm N)
KLUM - Menomonie Municipal Airport-Score Field (20 nm SE)
KOEO - L O Simenstad Municipal Airport (23 nm NW)
 
Loc | Ops | Rwys | IFR | FBO | Links
Com | Nav | Svcs | Stats | Notes
Area around 85WI (Cub Bear Airport)
 
Road maps at: MapQuest Bing Google
 
Aerial photo
No photo
 
Sectional chart

 
Airport distance calculator
Flying to Cub Bear Airport? Find the distance to fly.

From to 85WI

Sunrise and sunset
Times for 27-Jan-2023
 Local
(UTC-6)
 Zulu
(UTC)
Morning civil twilight07:0413:04
Sunrise07:3613:36
Sunset17:0823:08
Evening civil twilight17:4023:40

Current date and time
Zulu (UTC)  27-Jan-2023 12:57:58
Local (UTC-6)  27-Jan-2023 06:57:58
 
METAR
KRNH 
12nm NW 
271235Z AUTO 20010G14KT 5SM -SN OVC012 M03/M03 A2939 RMK AO2 T10351035
KLUM 
20nm SE 
271255Z AUTO 16008KT 4SM -RA SCT009 BKN017 OVC022 M04/M04 A2943 RMK AO2 T10371037
KOEO 
23nm NW 
271235Z AUTO 19005KT 7SM OVC010 M03/M03 A2942 RMK AO2 T10311031 PWINO
TAF
KRNH 
12nm NW 
271120Z 2712/2812 20015G24KT 3SM -SN BR OVC010 FM271500 24018G27KT 6SM BR OVC015 FM272200 30016G24KT P6SM BKN020 FM280200 30013KT P6SM BKN040
NOTAMs
Click for the latest NOTAMs
NOTAMs are issued by the DoD/FAA and will open in a separate window not controlled by AirNav.

 

 
 

Would you like to see your business listed on this page?

 If your business provides an interesting product or service to pilots, flight crews, aircraft, or users of the Cub Bear Airport, you should consider listing it here.  To start the listing process, click on the button below
 
Add a business
 

Other Pages about Cub Bear Airport

Update a link
 
Copyright © AirNav, LLC. All rights reserved. Privacy Policy  Contact